Create Tblcommutelog Verified Points Advance Search
| # | Trip ID | Id Commuter | Trip Date | Trip Num | Current Lat | Current Lng | Delta Distance | Current Time | Activity | Activity Confidence | Current Speed | |
|---|---|---|---|---|---|---|---|---|---|---|---|---|
| 70161 | 250522_784913_16652956_2145 | 784913 | (not set) | (not set) | 38.90556535975 | -77.043305572651 | 0.4547 | 2025-05-23 02:01:23.669 | on_foot | 100 | 0 | |
| 70162 | 250523_784108_16469367_0536 | 784108 | (not set) | (not set) | 39.000208651598 | -77.098970472174 | 25.6232 | 2025-05-23 10:02:20.484 | in_vehicle | 100 | 0 | |
| 70163 | 250523_785146_16514009_0601 | 785146 | (not set) | (not set) | 39.1016196 | -76.8426923 | 0.032 | 2025-05-23 10:02:44.142 | walking | 100 | 2.6241204502579 | |
| 70164 | 250523_784108_16469367_0536 | 784108 | (not set) | (not set) | 39.000373429584 | -77.099544762054 | 25.6561 | 2025-05-23 10:02:44.292 | in_vehicle | 100 | 2.7001171242859 | |
| 70165 | 250523_785146_16514009_0601 | 785146 | (not set) | (not set) | 39.1008968 | -76.8435328 | 0.0993 | 2025-05-23 10:02:57.142 | walking | 100 | 4.9308430266346 | |
| 70166 | 250523_784108_16469367_0536 | 784108 | (not set) | (not set) | 39.000399285443 | -77.1007172986 | 25.7192 | 2025-05-23 10:03:04.723 | in_vehicle | 100 | 3.0398669611165 | |
| 70167 | 250523_785146_16514009_0601 | 785146 | (not set) | (not set) | 39.099762 | -76.8446522 | 0.198 | 2025-05-23 10:03:08.113 | walking | 100 | 7.0319275438769 | |
| 70168 | 250522_784913_16652956_2145 | 784913 | (not set) | (not set) | 38.90556535975 | -77.043305572651 | 0.4547 | 2025-05-23 02:01:23.669 | on_foot | 100 | 0 | |
| 70169 | 250522_784913_16652956_2145 | 784913 | (not set) | (not set) | 38.906013374201 | -77.043397370442 | 0.4859 | 2025-05-23 02:02:14.43 | on_foot | 100 | 0.61691417740306 | |
| 70170 | 250522_784913_16652956_2145 | 784913 | (not set) | (not set) | 38.906468799152 | -77.043467331168 | 0.5175 | 2025-05-23 02:02:54.215 | on_foot | 100 | 0.47386161452699 | |
| 70171 | 250522_784913_16652956_2145 | 784913 | (not set) | (not set) | 38.906540120049 | -77.043449613536 | 0.5175 | 2025-05-23 02:02:59.186 | on_foot | 100 | 0.41127611826871 | |
| 70172 | 250522_784913_16652956_2145 | 784913 | (not set) | (not set) | 38.906916268007 | -77.043399479249 | 0.5487 | 2025-05-23 02:03:23.382 | on_foot | 100 | 0.77784831063864 | |
| 70173 | 250522_784913_16652956_2145 | 784913 | (not set) | (not set) | 38.907370418068 | -77.043428288305 | 0.58 | 2025-05-23 02:04:02.332 | on_foot | 100 | 0.58115103668404 | |
| 70174 | 250522_784913_16652956_2145 | 784913 | (not set) | (not set) | 38.907827492776 | -77.043374691281 | 0.6117 | 2025-05-23 02:04:32.312 | on_foot | 100 | 0.5498582885549 | |
| 70175 | 250522_784913_16652956_2145 | 784913 | (not set) | (not set) | 38.908281681624 | -77.043371698558 | 0.643 | 2025-05-23 02:05:13.392 | on_foot | 100 | 0.55432868114478 | |
| 70176 | 250522_784913_16652956_2145 | 784913 | (not set) | (not set) | 38.908735905744 | -77.043421357307 | 0.6744 | 2025-05-23 02:05:55.202 | on_foot | 100 | 0.48280239970674 | |
| 70177 | 250522_784913_16652956_2145 | 784913 | (not set) | (not set) | 38.909145964424 | -77.043169797984 | 0.7058 | 2025-05-23 02:06:55.188 | on_foot | 100 | 0.54091750337515 | |
| 70178 | 250522_784913_16652956_2145 | 784913 | (not set) | (not set) | 38.909534774128 | -77.04347810961 | 0.7374 | 2025-05-23 02:07:35.222 | on_foot | 100 | 0.53644711078527 | |
| 70179 | 250522_784913_16652956_2145 | 784913 | (not set) | (not set) | 38.909972121285 | -77.043650693607 | 0.7689 | 2025-05-23 02:08:17.202 | on_foot | 100 | 0.49621357747637 | |
| 70180 | 250522_784913_16652956_2145 | 784913 | (not set) | (not set) | 38.910426082468 | -77.043703412563 | 0.8004 | 2025-05-23 02:09:04.181 | on_foot | 100 | 0.60350299963343 |